Time;durP1;ratioP1;P1;durP2;ratioP2;P2;SDS_P1;SDS_P2;PMS_P1;PMS_P2;Temp;Humidity;BMP_temperature;BMP_pressure;BME280_temperature;BME280_humidity;BME280_pressure;Samples;Min_cycle;Max_cycle;Signal;HPM_P1;HPM_P2
2022/02/22 00:00:26;;;;;;;3.83;1.70;;;6.40;99.90;;;;;;4866186;29;20741;-81
2022/02/22 00:03:12;;;;;;;5.53;1.87;;;6.50;99.90;;;;;;4865843;29;20403;-82
2022/02/22 00:05:56;;;;;;;3.17;1.60;;;6.50;99.90;;;;;;4869504;29;20408;-82
2022/02/22 00:08:41;;;;;;;3.43;1.83;;;6.50;99.90;;;;;;4870693;29;20792;-82
2022/02/22 00:11:26;;;;;;;2.03;1.70;;;6.60;99.90;;;;;;4869562;29;20768;-82
2022/02/22 00:14:12;;;;;;;2.23;1.30;;;6.60;99.90;;;;;;4871373;29;20409;-81
2022/02/22 00:16:57;;;;;;;2.17;1.87;;;6.50;99.90;;;;;;4873062;29;20390;-80
2022/02/22 00:19:42;;;;;;;1.40;1.30;;;6.60;99.90;;;;;;4871434;29;20377;-81
2022/02/22 00:22:26;;;;;;;1.17;1.07;;;6.50;99.90;;;;;;4870193;29;20478;-82
2022/02/22 00:25:12;;;;;;;9.47;2.90;;;6.50;99.90;;;;;;4869618;29;20410;-82
2022/02/22 00:27:57;;;;;;;4.40;1.50;;;6.60;99.90;;;;;;4871346;29;20419;-82
2022/02/22 00:30:42;;;;;;;1.93;1.40;;;6.50;99.90;;;;;;4871137;29;20400;-81
2022/02/22 00:33:28;;;;;;;1.83;1.43;;;6.50;99.90;;;;;;4871312;29;20538;-81
2022/02/22 00:36:13;;;;;;;5.13;1.80;;;6.50;99.90;;;;;;4872314;29;20399;-80
2022/02/22 00:38:57;;;;;;;3.90;2.37;;;6.60;99.90;;;;;;4872724;29;20460;-81
2022/02/22 00:41:42;;;;;;;1.47;1.37;;;6.50;99.90;;;;;;4872139;29;20559;-82
2022/02/22 00:44:27;;;;;;;7.90;1.77;;;6.50;99.90;;;;;;4871970;29;20451;-82
2022/02/22 00:47:11;;;;;;;2.13;1.37;;;6.40;99.90;;;;;;4871386;29;20438;-82
2022/02/22 00:49:57;;;;;;;1.30;1.20;;;6.40;99.90;;;;;;4870365;29;20429;-81
2022/02/22 00:52:42;;;;;;;10.80;3.23;;;6.30;99.90;;;;;;4871061;29;20459;-81
2022/02/22 00:55:26;;;;;;;1.33;1.23;;;6.40;99.90;;;;;;4871336;29;20461;-81
2022/02/22 00:58:11;;;;;;;1.60;1.50;;;6.40;99.90;;;;;;4871035;29;20427;-82
2022/02/22 01:00:56;;;;;;;4.37;1.60;;;6.40;99.90;;;;;;4871484;29;20887;-81
2022/02/22 01:03:41;;;;;;;2.30;1.53;;;6.40;99.90;;;;;;4871100;29;20448;-82
2022/02/22 01:06:26;;;;;;;9.03;1.70;;;6.40;99.90;;;;;;4870997;29;20479;-80
2022/02/22 01:09:13;;;;;;;1.40;1.30;;;6.40;99.90;;;;;;4855066;29;20407;-81
2022/02/22 01:11:59;;;;;;;4.00;1.60;;;6.40;99.90;;;;;;4868512;29;20450;-82
2022/02/22 01:14:45;;;;;;;4.37;1.47;;;6.50;99.90;;;;;;4868343;29;20576;-81
2022/02/22 01:17:30;;;;;;;8.53;1.83;;;6.50;99.90;;;;;;4867779;29;20388;-81
2022/02/22 01:20:15;;;;;;;3.50;2.00;;;6.40;99.90;;;;;;4868768;29;20456;-81
2022/02/22 01:23:00;;;;;;;7.23;1.87;;;6.50;99.90;;;;;;4868243;29;20756;-81
2022/02/22 01:25:45;;;;;;;1.70;1.40;;;6.50;99.90;;;;;;4868087;29;20480;-81
2022/02/22 01:28:30;;;;;;;3.47;2.30;;;6.50;99.90;;;;;;4868200;29;20448;-81
2022/02/22 01:31:15;;;;;;;2.83;1.27;;;6.60;99.90;;;;;;4866760;29;20884;-81
2022/02/22 01:34:00;;;;;;;11.53;3.73;;;6.50;99.90;;;;;;4867166;29;20556;-82
2022/02/22 01:36:45;;;;;;;6.50;2.30;;;6.40;99.90;;;;;;4867775;29;20946;-81
2022/02/22 01:39:30;;;;;;;9.70;1.80;;;6.50;99.90;;;;;;4868411;29;20391;-80
2022/02/22 01:42:15;;;;;;;1.67;1.57;;;6.50;99.90;;;;;;4868040;29;20483;-81
2022/02/22 01:44:59;;;;;;;5.40;1.87;;;6.50;99.90;;;;;;4867949;29;20410;-81
2022/02/22 01:47:44;;;;;;;3.03;1.80;;;6.50;99.90;;;;;;4867062;29;20420;-82
2022/02/22 01:50:28;;;;;;;7.90;1.63;;;6.50;99.90;;;;;;4867894;29;20494;-81
2022/02/22 01:53:15;;;;;;;1.50;1.40;;;6.50;99.90;;;;;;4867336;29;20527;-81
2022/02/22 01:56:01;;;;;;;1.83;1.67;;;6.50;99.90;;;;;;4867404;29;20494;-81
2022/02/22 01:58:45;;;;;;;2.57;1.57;;;6.40;99.90;;;;;;4867130;29;20402;-81
2022/02/22 02:01:29;;;;;;;7.53;1.77;;;6.40;99.90;;;;;;4867491;29;20395;-81
2022/02/22 02:04:14;;;;;;;3.90;1.23;;;6.30;99.90;;;;;;4867679;29;20388;-81
2022/02/22 02:07:00;;;;;;;3.13;1.60;;;6.20;99.90;;;;;;4866740;29;20407;-82
2022/02/22 02:09:44;;;;;;;4.20;1.73;;;6.20;99.90;;;;;;4866924;29;20410;-81
2022/02/22 02:12:38;;;;;;;4.10;1.73;;;6.10;99.90;;;;;;4866785;29;20526;-81
2022/02/22 02:15:22;;;;;;;4.40;1.53;;;6.20;99.90;;;;;;4865619;29;20463;-81
2022/02/22 02:18:07;;;;;;;8.77;2.03;;;6.10;99.90;;;;;;4866615;29;20427;-81
2022/02/22 02:20:51;;;;;;;16.87;3.70;;;6.20;99.90;;;;;;4866111;29;20410;-81
2022/02/22 02:23:36;;;;;;;4.00;1.77;;;6.20;99.90;;;;;;4866815;29;20437;-81
2022/02/22 02:26:21;;;;;;;6.40;1.47;;;6.20;99.90;;;;;;4866709;29;20369;-81
2022/02/22 02:29:07;;;;;;;5.70;1.97;;;6.30;99.90;;;;;;4865240;29;20490;-81
2022/02/22 02:31:53;;;;;;;3.40;1.57;;;6.30;99.90;;;;;;4866126;29;20458;-81
2022/02/22 02:34:37;;;;;;;1.83;1.63;;;6.30;99.90;;;;;;4866062;29;20410;-81
2022/02/22 02:37:21;;;;;;;2.13;1.67;;;6.30;99.90;;;;;;4866201;29;20901;-80
2022/02/22 02:40:09;;;;;;;2.13;1.93;;;6.30;99.90;;;;;;4866077;29;20398;-80
2022/02/22 02:42:53;;;;;;;6.00;2.77;;;6.30;99.90;;;;;;4865271;29;20415;-81
2022/02/22 02:45:38;;;;;;;4.43;2.07;;;6.20;99.90;;;;;;4866025;29;20378;-80
2022/02/22 02:48:22;;;;;;;10.53;1.77;;;6.20;99.90;;;;;;4866220;29;20426;-81
2022/02/22 02:51:07;;;;;;;2.23;1.37;;;6.30;99.90;;;;;;4866254;29;20448;-81
2022/02/22 02:53:52;;;;;;;2.27;2.03;;;6.30;99.90;;;;;;4866178;29;20403;-81
2022/02/22 02:56:38;;;;;;;8.87;2.07;;;6.30;99.90;;;;;;4866331;29;20543;-81
2022/02/22 02:59:22;;;;;;;7.87;2.30;;;6.30;99.90;;;;;;4866475;29;20765;-81
2022/02/22 03:02:07;;;;;;;4.17;2.30;;;6.30;99.90;;;;;;4866289;29;20403;-81
2022/02/22 03:04:51;;;;;;;3.50;1.37;;;6.30;99.90;;;;;;4865728;29;20414;-81
2022/02/22 03:07:36;;;;;;;6.33;2.67;;;6.30;99.90;;;;;;4865898;29;20398;-81
2022/02/22 03:10:21;;;;;;;6.33;1.97;;;6.20;99.90;;;;;;4866012;29;20442;-80
2022/02/22 03:13:05;;;;;;;5.23;2.33;;;6.20;99.90;;;;;;4866090;29;20485;-81
2022/02/22 03:15:50;;;;;;;9.60;2.10;;;6.20;99.90;;;;;;4851827;29;20413;-81
2022/02/22 03:18:34;;;;;;;8.80;2.23;;;6.20;99.90;;;;;;4865787;29;20444;-81
2022/02/22 03:21:18;;;;;;;11.93;2.30;;;6.20;99.90;;;;;;4866605;29;20448;-81
2022/02/22 03:24:03;;;;;;;1.90;1.80;;;6.10;99.90;;;;;;4871094;29;20422;-80
2022/02/22 03:26:48;;;;;;;1.83;1.30;;;6.00;99.90;;;;;;4872394;29;20966;-81
2022/02/22 03:29:34;;;;;;;1.40;1.30;;;6.10;99.90;;;;;;4865897;29;20512;-81
2022/02/22 03:32:19;;;;;;;3.13;1.77;;;6.10;99.90;;;;;;4866140;29;20478;-81
2022/02/22 03:35:04;;;;;;;3.97;1.50;;;6.00;99.90;;;;;;4865895;29;20411;-82
2022/02/22 03:37:48;;;;;;;9.77;4.20;;;5.90;99.90;;;;;;4868557;29;20906;-82
2022/02/22 03:40:33;;;;;;;5.13;2.17;;;5.80;99.90;;;;;;4869792;29;20428;-82
2022/02/22 03:43:18;;;;;;;4.33;1.83;;;5.80;99.90;;;;;;4869657;29;20427;-80
2022/02/22 03:46:03;;;;;;;7.80;2.70;;;5.80;99.90;;;;;;4884079;29;20522;-81
2022/02/22 03:48:49;;;;;;;2.77;1.40;;;5.70;99.90;;;;;;4883970;29;20471;-81
2022/02/22 03:51:34;;;;;;;7.10;2.37;;;5.70;99.90;;;;;;4870801;29;20558;-81
2022/02/22 03:54:18;;;;;;;3.43;2.10;;;5.70;99.90;;;;;;4883616;29;20391;-79
2022/02/22 03:57:04;;;;;;;7.13;2.67;;;5.70;99.90;;;;;;4882723;29;20443;-81
2022/02/22 03:59:48;;;;;;;2.17;1.73;;;5.60;99.90;;;;;;4881750;29;20403;-81
2022/02/22 04:02:33;;;;;;;3.73;2.00;;;5.70;99.90;;;;;;4881959;29;20397;-82
2022/02/22 04:05:20;;;;;;;4.10;2.03;;;5.60;99.90;;;;;;4869432;29;20478;-81
2022/02/22 04:08:05;;;;;;;7.03;2.20;;;5.50;99.90;;;;;;4859398;29;20504;-78
2022/02/22 04:10:50;;;;;;;10.40;2.80;;;5.50;99.90;;;;;;4864983;29;20386;-81
2022/02/22 04:13:35;;;;;;;6.50;1.60;;;5.50;99.90;;;;;;4859027;29;20524;-81
2022/02/22 04:16:20;;;;;;;4.50;2.30;;;5.60;99.90;;;;;;4848345;29;20415;-82
2022/02/22 04:19:04;;;;;;;6.07;4.07;;;5.60;99.90;;;;;;4860548;29;20387;-82
2022/02/22 04:21:49;;;;;;;18.70;3.30;;;5.50;99.90;;;;;;4849700;29;20429;-82
2022/02/22 04:24:36;;;;;;;5.37;2.13;;;5.50;99.90;;;;;;4849682;29;20738;-82
2022/02/22 04:27:20;;;;;;;3.40;2.10;;;5.50;99.90;;;;;;4852534;29;20403;-82
2022/02/22 04:30:09;;;;;;;8.27;2.10;;;5.40;99.90;;;;;;4854895;29;20400;-79
2022/02/22 04:32:53;;;;;;;3.00;1.77;;;5.40;99.90;;;;;;4861781;29;20463;-80
2022/02/22 04:35:38;;;;;;;3.73;1.50;;;5.50;99.90;;;;;;4848020;29;20400;-80
2022/02/22 04:38:22;;;;;;;4.10;1.73;;;5.40;99.90;;;;;;4847867;29;21089;-81
2022/02/22 04:41:07;;;;;;;8.90;2.90;;;5.40;99.90;;;;;;4848421;29;20382;-81
2022/02/22 04:43:52;;;;;;;6.90;2.10;;;5.40;99.90;;;;;;4863438;29;20400;-81
2022/02/22 04:46:36;;;;;;;6.33;2.53;;;5.40;99.90;;;;;;4862483;29;20432;-80
2022/02/22 04:49:21;;;;;;;4.60;1.47;;;5.50;99.90;;;;;;4864439;29;20488;-80
2022/02/22 04:52:09;;;;;;;10.80;2.17;;;5.50;99.90;;;;;;4867245;29;20532;-81
2022/02/22 04:54:54;;;;;;;7.60;2.03;;;5.50;99.90;;;;;;4857764;29;20584;-82
2022/02/22 04:57:38;;;;;;;3.47;1.53;;;5.40;99.90;;;;;;4870113;29;20402;-82
2022/02/22 05:00:23;;;;;;;2.77;1.80;;;5.40;99.90;;;;;;4869635;29;21001;-82
2022/02/22 05:03:07;;;;;;;7.50;2.60;;;5.50;99.90;;;;;;4869585;29;20414;-82
2022/02/22 05:05:53;;;;;;;3.50;2.60;;;5.50;99.90;;;;;;4869377;29;20395;-82
2022/02/22 05:08:38;;;;;;;2.83;1.80;;;5.40;99.90;;;;;;4868661;29;20459;-82
2022/02/22 05:11:23;;;;;;;6.03;2.23;;;5.50;99.90;;;;;;4869945;29;20935;-82
2022/02/22 05:17:39;;;;;;;15.13;3.03;;;5.50;99.90;;;;;;4871027;29;20547;-82
2022/02/22 05:20:23;;;;;;;16.30;3.03;;;5.50;99.90;;;;;;4885722;29;20399;-82
2022/02/22 05:23:08;;;;;;;11.80;2.87;;;5.50;99.90;;;;;;4874191;29;20432;-80
2022/02/22 05:25:54;;;;;;;7.33;1.50;;;5.40;99.90;;;;;;4873235;29;20436;-79
2022/02/22 05:28:40;;;;;;;2.30;1.67;;;5.20;99.90;;;;;;4868412;29;20812;-81
2022/02/22 05:31:25;;;;;;;4.93;1.60;;;5.20;99.90;;;;;;4868000;29;20782;-81
2022/02/22 05:34:09;;;;;;;2.47;2.07;;;5.10;99.90;;;;;;4865319;29;20425;-80
2022/02/22 05:36:57;;;;;;;11.93;4.07;;;5.00;99.90;;;;;;4867031;29;20415;-80
2022/02/22 05:39:41;;;;;;;13.17;3.03;;;5.00;99.90;;;;;;4866370;29;20423;-82
2022/02/22 05:42:28;;;;;;;1.73;1.60;;;5.00;99.90;;;;;;4849888;29;20463;-81
2022/02/22 05:45:13;;;;;;;6.30;2.73;;;4.90;99.90;;;;;;4863903;29;20413;-81
2022/02/22 05:47:58;;;;;;;9.70;3.37;;;5.00;99.90;;;;;;4868801;29;20491;-81
2022/02/22 05:50:42;;;;;;;6.40;2.80;;;5.00;99.90;;;;;;4850338;29;20512;-81
2022/02/22 05:53:27;;;;;;;8.50;2.53;;;5.00;99.90;;;;;;4868128;29;20454;-81
2022/02/22 05:56:11;;;;;;;9.30;3.70;;;5.00;99.90;;;;;;4867230;29;20444;-81
2022/02/22 05:58:59;;;;;;;5.80;2.33;;;5.00;99.90;;;;;;4866166;29;20435;-81
2022/02/22 06:01:44;;;;;;;4.70;1.90;;;5.00;99.90;;;;;;4867774;29;20936;-81
2022/02/22 06:04:28;;;;;;;12.63;2.93;;;4.90;99.90;;;;;;4864524;29;20857;-80
2022/02/22 06:07:18;;;;;;;13.17;2.20;;;4.90;99.90;;;;;;4847510;29;20507;-81
2022/02/22 06:10:03;;;;;;;9.73;2.83;;;5.00;99.90;;;;;;4861464;29;20484;-81
2022/02/22 06:12:49;;;;;;;19.77;6.80;;;5.00;99.90;;;;;;4863110;29;20463;-80
2022/02/22 06:15:33;;;;;;;9.57;2.30;;;5.00;99.90;;;;;;4866673;29;20818;-80
2022/02/22 06:18:17;;;;;;;10.83;4.80;;;5.10;99.90;;;;;;4866467;29;20539;-81
2022/02/22 06:21:02;;;;;;;2.00;1.80;;;5.10;99.90;;;;;;4879502;29;20472;-80
2022/02/22 06:23:46;;;;;;;3.53;2.60;;;5.10;99.90;;;;;;4883252;29;20422;-80
2022/02/22 06:26:32;;;;;;;6.90;3.77;;;5.20;99.90;;;;;;4880838;29;20408;-81
2022/02/22 06:29:16;;;;;;;5.63;2.07;;;5.20;99.90;;;;;;4888137;29;20858;-81
2022/02/22 06:32:01;;;;;;;16.63;4.23;;;5.20;99.90;;;;;;4867760;29;20534;-81
2022/02/22 06:34:46;;;;;;;9.03;2.80;;;5.20;99.90;;;;;;4867390;29;20431;-80
2022/02/22 06:37:30;;;;;;;3.10;1.90;;;5.20;99.90;;;;;;4867191;29;20764;-81
2022/02/22 06:40:15;;;;;;;8.10;2.80;;;5.30;99.90;;;;;;4866029;29;20432;-83
2022/02/22 06:43:00;;;;;;;7.73;3.83;;;5.20;99.90;;;;;;4863526;29;20398;-81
2022/02/22 06:45:44;;;;;;;8.37;3.97;;;5.30;99.90;;;;;;4874382;29;20397;-81
2022/02/22 06:48:29;;;;;;;5.83;2.60;;;5.10;99.90;;;;;;4866069;29;20470;-80
2022/02/22 06:51:13;;;;;;;12.87;4.30;;;5.20;99.90;;;;;;4876052;29;20430;-80
2022/02/22 06:53:58;;;;;;;2.83;2.60;;;5.20;99.90;;;;;;4863221;29;20864;-82
2022/02/22 06:56:43;;;;;;;4.60;1.83;;;5.30;99.90;;;;;;4867739;29;20456;-82
2022/02/22 06:59:27;;;;;;;2.20;1.97;;;5.30;99.90;;;;;;4867770;29;20533;-82
2022/02/22 07:02:12;;;;;;;9.90;3.87;;;5.40;99.90;;;;;;4864477;29;20930;-81
2022/02/22 07:04:57;;;;;;;13.60;2.40;;;5.40;99.90;;;;;;4867994;29;20426;-82
2022/02/22 07:07:41;;;;;;;6.40;3.43;;;5.40;99.90;;;;;;4863472;29;20792;-81
2022/02/22 07:10:26;;;;;;;15.83;3.40;;;5.40;99.90;;;;;;4874480;29;20421;-81
2022/02/22 07:13:11;;;;;;;6.47;3.33;;;5.40;99.90;;;;;;4862623;29;20500;-81
2022/02/22 07:15:56;;;;;;;7.83;2.90;;;5.50;99.90;;;;;;4847647;29;20434;-82
2022/02/22 07:18:40;;;;;;;3.70;1.57;;;5.50;99.90;;;;;;4871205;29;20491;-81
2022/02/22 07:21:25;;;;;;;6.30;2.30;;;5.20;99.90;;;;;;4863008;29;20427;-82
2022/02/22 07:24:09;;;;;;;6.20;2.73;;;5.40;99.90;;;;;;4867439;29;20427;-80
2022/02/22 07:26:54;;;;;;;3.57;2.50;;;5.40;99.90;;;;;;4862155;29;20515;-80
2022/02/22 07:29:38;;;;;;;2.93;1.70;;;5.40;99.90;;;;;;4866611;29;20505;-81
2022/02/22 07:32:23;;;;;;;4.03;1.97;;;5.40;99.90;;;;;;4863167;29;20527;-81
2022/02/22 07:35:09;;;;;;;3.47;2.20;;;5.40;99.90;;;;;;4863652;29;20439;-81
2022/02/22 07:37:54;;;;;;;7.80;2.50;;;5.40;99.90;;;;;;4865380;29;20447;-81
2022/02/22 07:40:38;;;;;;;4.03;2.63;;;5.40;99.90;;;;;;4859055;29;20442;-81
2022/02/22 07:43:23;;;;;;;13.90;3.50;;;5.30;99.90;;;;;;4861879;29;20474;-81
2022/02/22 07:46:07;;;;;;;10.03;4.27;;;5.40;99.90;;;;;;4871511;29;20411;-82
2022/02/22 07:48:52;;;;;;;7.53;2.37;;;5.40;99.90;;;;;;4852239;29;20462;-81
2022/02/22 07:51:36;;;;;;;3.37;1.83;;;5.50;99.90;;;;;;4864961;29;21053;-81
2022/02/22 07:54:21;;;;;;;2.43;2.23;;;5.60;99.90;;;;;;4864407;29;20414;-81
2022/02/22 07:57:06;;;;;;;11.83;2.40;;;5.60;99.90;;;;;;4861975;29;20426;-81
2022/02/22 07:59:51;;;;;;;2.93;1.93;;;5.70;99.90;;;;;;4851604;29;20455;-81
2022/02/22 08:02:36;;;;;;;3.90;2.70;;;5.80;99.90;;;;;;4861921;29;20455;-81
2022/02/22 08:05:22;;;;;;;7.10;2.43;;;5.90;99.90;;;;;;4862248;29;20438;-81
2022/02/22 08:08:09;;;;;;;8.60;2.80;;;5.90;99.90;;;;;;4845138;29;20435;-81
2022/02/22 08:10:54;;;;;;;9.07;2.77;;;5.90;99.90;;;;;;4869178;29;20478;-81
2022/02/22 08:13:38;;;;;;;17.80;4.40;;;6.00;99.90;;;;;;4868736;29;20945;-81
2022/02/22 08:16:23;;;;;;;11.23;4.03;;;6.00;99.90;;;;;;4870926;29;20460;-82
2022/02/22 08:19:08;;;;;;;10.70;3.37;;;6.10;99.90;;;;;;4861274;29;20461;-82
2022/02/22 08:21:52;;;;;;;12.30;2.50;;;6.00;99.90;;;;;;4864936;29;20470;-82
2022/02/22 08:24:37;;;;;;;11.40;3.17;;;6.00;99.90;;;;;;4862623;29;20746;-81
2022/02/22 08:27:21;;;;;;;7.80;2.90;;;6.10;99.90;;;;;;4867471;29;20397;-81
2022/02/22 08:30:06;;;;;;;5.37;2.57;;;6.10;99.90;;;;;;4860867;29;20439;-82
2022/02/22 08:32:52;;;;;;;10.80;3.13;;;6.10;99.90;;;;;;4865372;29;20452;-81
2022/02/22 08:35:36;;;;;;;8.70;4.10;;;6.20;99.90;;;;;;4869072;29;20414;-80
2022/02/22 08:38:21;;;;;;;12.00;3.13;;;6.30;99.90;;;;;;4861989;29;20459;-81
2022/02/22 08:41:07;;;;;;;3.00;2.00;;;6.40;99.90;;;;;;4875785;29;20971;-82
2022/02/22 08:43:52;;;;;;;5.03;2.70;;;6.50;99.90;;;;;;4859891;29;20805;-81
2022/02/22 08:46:36;;;;;;;5.43;2.27;;;6.50;99.90;;;;;;4864548;29;20460;-81
2022/02/22 08:49:21;;;;;;;3.73;2.13;;;6.60;99.90;;;;;;4848715;29;20454;-81
2022/02/22 08:52:06;;;;;;;3.30;2.23;;;6.60;99.90;;;;;;4867872;29;20478;-82
2022/02/22 08:54:51;;;;;;;7.40;2.90;;;6.50;99.90;;;;;;4866098;29;20494;-82
2022/02/22 08:57:36;;;;;;;2.60;2.40;;;6.70;99.90;;;;;;4863028;29;20414;-82
2022/02/22 09:00:20;;;;;;;7.13;2.63;;;7.20;99.90;;;;;;4866706;29;20419;-82
2022/02/22 09:03:05;;;;;;;5.07;2.47;;;7.90;99.90;;;;;;4864861;29;20472;-82
2022/02/22 09:05:50;;;;;;;11.40;3.53;;;7.70;99.90;;;;;;4858871;29;20468;-82
2022/02/22 09:08:34;;;;;;;6.77;3.00;;;7.50;99.90;;;;;;4861890;29;20432;-82
2022/02/22 09:11:19;;;;;;;12.67;3.70;;;7.30;99.90;;;;;;4853985;29;20511;-82
2022/02/22 09:14:03;;;;;;;5.33;2.63;;;7.20;99.90;;;;;;4866421;29;20525;-82
2022/02/22 09:16:48;;;;;;;8.67;3.47;;;7.20;99.90;;;;;;4879780;29;20458;-82
2022/02/22 09:19:33;;;;;;;8.30;2.63;;;7.10;99.90;;;;;;4862317;29;20570;-82
2022/02/22 09:22:17;;;;;;;8.90;4.47;;;6.80;99.90;;;;;;4867140;29;20502;-82
2022/02/22 09:25:04;;;;;;;5.70;2.13;;;6.90;99.90;;;;;;4867352;29;20469;-82
2022/02/22 09:27:49;;;;;;;7.90;3.87;;;6.90;99.90;;;;;;4867643;29;20913;-82
2022/02/22 09:30:35;;;;;;;22.73;4.90;;;6.90;99.90;;;;;;4864460;29;20495;-82
2022/02/22 09:33:19;;;;;;;6.47;3.23;;;6.70;99.90;;;;;;4864829;29;20481;-82
2022/02/22 09:36:04;;;;;;;7.93;2.53;;;6.70;99.90;;;;;;4871296;29;20426;-82
2022/02/22 09:38:50;;;;;;;16.73;4.30;;;7.00;99.90;;;;;;4875352;29;20486;-82
2022/02/22 09:41:36;;;;;;;5.57;2.10;;;7.20;99.90;;;;;;4860628;29;20518;-82
2022/02/22 09:44:21;;;;;;;9.13;3.50;;;7.40;99.90;;;;;;4864065;29;20487;-82
2022/02/22 09:47:07;;;;;;;8.40;3.27;;;7.60;99.90;;;;;;4869108;29;20802;-81
2022/02/22 09:49:51;;;;;;;2.63;2.10;;;7.60;99.90;;;;;;4858590;29;21051;-82
2022/02/22 09:52:36;;;;;;;10.73;2.60;;;7.60;99.90;;;;;;4868157;29;20501;-82
2022/02/22 09:55:21;;;;;;;19.87;5.27;;;7.50;99.90;;;;;;4865304;29;21485;-82
2022/02/22 09:58:06;;;;;;;15.47;3.30;;;7.40;99.90;;;;;;4868340;29;20419;-81
2022/02/22 10:01:04;;;;;;;24.33;3.10;;;7.40;99.90;;;;;;4879523;29;20431;-80
2022/02/22 10:03:57;;;;;;;6.00;1.93;;;7.60;99.90;;;;;;4868523;29;20506;-80
2022/02/22 10:06:42;;;;;;;7.53;2.80;;;7.70;99.90;;;;;;4868783;29;20984;-82
2022/02/22 10:09:27;;;;;;;10.77;2.90;;;7.80;99.90;;;;;;4880493;29;20451;-81
2022/02/22 10:12:13;;;;;;;9.40;2.73;;;7.70;99.90;;;;;;4856848;29;20506;-81
2022/02/22 10:14:59;;;;;;;5.03;2.43;;;8.00;99.90;;;;;;4870237;29;20495;-81
2022/02/22 10:17:48;;;;;;;12.87;5.33;;;8.30;99.90;;;;;;4872084;29;20472;-80
2022/02/22 10:20:33;;;;;;;4.37;2.27;;;8.40;99.90;;;;;;4868959;29;20917;-82
2022/02/22 10:23:32;;;;;;;6.03;2.40;;;8.50;99.90;;;;;;4872295;29;20469;-81
2022/02/22 10:26:32;;;;;;;7.70;2.70;;;8.50;99.90;;;;;;4864969;29;20820;-82
2022/02/22 10:29:19;;;;;;;4.70;2.50;;;8.70;99.90;;;;;;4852294;29;20584;-81
2022/02/22 10:32:12;;;;;;;7.50;2.50;;;8.60;99.90;;;;;;4877325;29;20466;-80
2022/02/22 10:34:56;;;;;;;7.87;2.83;;;8.40;99.90;;;;;;4863263;29;20431;-81
2022/02/22 10:37:41;;;;;;;11.10;3.53;;;8.00;99.90;;;;;;4862803;29;20739;-81
2022/02/22 10:40:55;;;;;;;8.33;3.13;;;7.80;99.90;;;;;;4860015;29;20428;-81
2022/02/22 10:43:39;;;;;;;6.83;2.63;;;7.70;99.90;;;;;;4861908;29;20843;-81
2022/02/22 10:46:29;;;;;;;13.37;3.30;;;8.00;99.90;;;;;;4859037;29;20430;-81
2022/02/22 10:49:18;;;;;;;10.07;3.10;;;8.00;99.90;;;;;;4847151;29;20435;-82
2022/02/22 10:52:07;;;;;;;8.43;1.93;;;8.00;99.90;;;;;;4860540;29;20538;-81
2022/02/22 10:55:00;;;;;;;5.50;2.40;;;8.00;99.90;;;;;;4866845;29;20470;-81
2022/02/22 10:57:46;;;;;;;11.80;2.30;;;7.90;99.90;;;;;;4849413;29;20429;-81
2022/02/22 11:00:30;;;;;;;2.70;2.27;;;7.80;99.90;;;;;;4845578;29;20994;-80
2022/02/22 11:03:15;;;;;;;13.83;3.17;;;8.00;99.90;;;;;;4862072;29;20503;-80
2022/02/22 11:05:59;;;;;;;6.67;3.30;;;8.10;99.90;;;;;;4845623;29;20454;-81
2022/02/22 11:08:46;;;;;;;16.03;5.63;;;8.40;99.90;;;;;;4847152;29;20446;-81
2022/02/22 11:11:41;;;;;;;8.37;3.10;;;9.30;99.90;;;;;;4858178;29;20422;-81
2022/02/22 11:14:28;;;;;;;4.83;2.50;;;9.10;99.90;;;;;;4869326;29;20677;-81
2022/02/22 11:17:23;;;;;;;6.60;2.83;;;9.80;99.90;;;;;;4866216;29;20442;-80
2022/02/22 11:20:24;;;;;;;6.57;3.67;;;9.80;99.90;;;;;;4873100;29;20487;-81
2022/02/22 11:23:15;;;;;;;4.23;2.97;;;10.30;99.90;;;;;;4851806;29;20504;-82
2022/02/22 11:26:14;;;;;;;5.00;2.30;;;10.80;99.90;;;;;;4862765;29;20475;-81
2022/02/22 11:29:00;;;;;;;12.80;2.70;;;10.80;99.90;;;;;;4861835;29;20690;-82
2022/02/22 11:31:57;;;;;;;5.03;1.80;;;11.20;99.90;;;;;;4863016;29;20767;-81
2022/02/22 11:34:43;;;;;;;8.00;2.90;;;12.30;99.90;;;;;;4859773;29;21084;-81
2022/02/22 11:37:30;;;;;;;4.20;1.90;;;12.70;99.90;;;;;;4861621;29;20422;-82
2022/02/22 11:40:25;;;;;;;6.23;2.93;;;12.30;99.90;;;;;;4856147;29;20443;-80
2022/02/22 11:43:13;;;;;;;5.70;2.57;;;11.90;99.90;;;;;;4862797;29;20430;-82
2022/02/22 11:46:07;;;;;;;14.17;3.20;;;11.70;99.90;;;;;;4872373;29;20544;-80
2022/02/22 11:49:03;;;;;;;9.30;2.30;;;10.90;99.90;;;;;;4867833;29;20648;-81
2022/02/22 11:51:53;;;;;;;5.80;2.80;;;10.60;99.90;;;;;;4864679;29;20462;-82
2022/02/22 11:54:39;;;;;;;14.13;2.97;;;10.60;99.90;;;;;;4862879;29;20490;-81
2022/02/22 11:57:23;;;;;;;5.03;2.50;;;10.40;99.90;;;;;;4864174;29;20929;-82
2022/02/22 12:00:08;;;;;;;5.30;2.67;;;10.20;99.90;;;;;;4862701;29;20484;-82
2022/02/22 12:03:03;;;;;;;6.13;2.57;;;9.70;99.90;;;;;;4857581;29;20422;-82
2022/02/22 12:05:57;;;;;;;10.00;2.63;;;10.20;99.90;;;;;;4860530;29;20435;-81
2022/02/22 12:08:46;;;;;;;4.73;2.60;;;10.50;99.90;;;;;;4877312;29;20431;-79
2022/02/22 12:11:30;;;;;;;5.70;2.80;;;10.60;99.90;;;;;;4865126;29;20573;-79
2022/02/22 12:14:15;;;;;;;7.60;2.47;;;10.90;99.90;;;;;;4865711;29;20447;-79
2022/02/22 12:17:02;;;;;;;4.60;2.30;;;10.80;99.90;;;;;;4859972;29;20491;-81
2022/02/22 12:19:49;;;;;;;11.27;2.20;;;10.70;99.90;;;;;;4866222;29;20799;-79
2022/02/22 12:22:37;;;;;;;5.70;2.50;;;10.80;99.90;;;;;;4862233;29;20460;-81
2022/02/22 12:25:26;;;;;;;4.73;2.17;;;10.70;99.90;;;;;;4868835;29;20419;-80
2022/02/22 12:28:10;;;;;;;2.57;1.87;;;10.90;99.90;;;;;;4873410;29;20491;-80
2022/02/22 12:30:58;;;;;;;9.00;2.20;;;11.10;99.90;;;;;;4853712;29;20775;-80
2022/02/22 12:33:44;;;;;;;3.43;1.90;;;11.00;99.90;;;;;;4862510;29;20500;-79
2022/02/22 12:36:30;;;;;;;5.73;2.40;;;10.40;99.90;;;;;;4870739;29;20387;-80
2022/02/22 12:39:17;;;;;;;3.67;2.33;;;10.10;99.90;;;;;;4866993;29;20478;-82
2022/02/22 12:42:03;;;;;;;6.00;3.37;;;9.70;99.90;;;;;;4862533;29;20469;-80
2022/02/22 12:44:50;;;;;;;9.90;2.97;;;9.80;99.90;;;;;;4849144;29;20450;-80
2022/02/22 12:47:34;;;;;;;4.00;2.17;;;9.50;99.90;;;;;;4851295;29;20485;-80
2022/02/22 12:50:22;;;;;;;8.50;2.70;;;9.70;99.90;;;;;;4849648;29;20488;-81
2022/02/22 12:53:07;;;;;;;4.00;2.20;;;9.70;99.90;;;;;;4859031;29;20481;-79
2022/02/22 12:55:54;;;;;;;8.60;2.93;;;9.90;99.90;;;;;;4865142;29;20799;-79
2022/02/22 12:58:39;;;;;;;2.50;2.10;;;9.70;99.90;;;;;;4804935;29;20456;-80
2022/02/22 13:01:26;;;;;;;5.20;2.40;;;9.70;99.90;;;;;;4772124;30;20489;-80
2022/02/22 13:04:13;;;;;;;3.90;2.23;;;9.20;99.90;;;;;;4779545;30;20459;-81
2022/02/22 13:07:02;;;;;;;4.27;2.67;;;9.40;99.90;;;;;;4772149;30;20459;-80
2022/02/22 13:09:48;;;;;;;8.57;3.10;;;9.40;99.90;;;;;;4780758;29;20564;-80
2022/02/22 13:12:34;;;;;;;2.90;1.77;;;9.40;99.90;;;;;;4776415;30;20532;-80
2022/02/22 13:15:25;;;;;;;4.20;1.63;;;9.50;99.90;;;;;;4776986;30;20512;-81
2022/02/22 13:18:19;;;;;;;8.73;2.50;;;9.60;99.90;;;;;;4780431;30;20524;-81
2022/02/22 13:21:13;;;;;;;2.07;1.80;;;9.40;99.90;;;;;;4779139;30;20467;-81
2022/02/22 13:24:09;;;;;;;9.23;2.33;;;9.40;99.90;;;;;;4791648;29;20612;-81
2022/02/22 13:26:57;;;;;;;5.00;2.47;;;9.30;99.90;;;;;;4779459;30;20480;-80
2022/02/22 13:29:41;;;;;;;2.90;2.20;;;9.40;99.90;;;;;;4797980;29;20496;-81
2022/02/22 13:32:31;;;;;;;6.73;2.57;;;9.70;99.90;;;;;;4850360;29;20539;-82
2022/02/22 13:35:21;;;;;;;6.80;2.47;;;9.90;99.90;;;;;;4869969;29;20455;-81
2022/02/22 13:38:18;;;;;;;8.90;2.40;;;9.50;99.90;;;;;;4869841;29;20458;-81
2022/02/22 13:41:16;;;;;;;6.73;1.77;;;9.90;99.90;;;;;;4867804;29;20458;-81
2022/02/22 13:44:01;;;;;;;5.50;2.73;;;10.10;99.90;;;;;;4867237;29;20438;-82
2022/02/22 13:46:52;;;;;;;2.40;1.97;;;9.90;99.90;;;;;;4867656;29;20503;-79
2022/02/22 13:49:46;;;;;;;3.53;2.37;;;10.00;99.90;;;;;;4868062;29;20464;-81
2022/02/22 13:52:31;;;;;;;3.80;2.37;;;10.20;99.90;;;;;;4851600;29;20493;-81
2022/02/22 13:55:15;;;;;;;2.50;1.47;;;10.20;99.90;;;;;;4864119;29;20489;-81
2022/02/22 13:58:03;;;;;;;3.13;1.60;;;10.10;99.90;;;;;;4866731;29;20449;-81
2022/02/22 14:00:49;;;;;;;3.93;1.90;;;9.90;99.90;;;;;;4863596;29;20450;-81
2022/02/22 14:03:35;;;;;;;1.53;1.40;;;9.60;99.90;;;;;;4868107;29;20507;-81
2022/02/22 14:06:19;;;;;;;5.13;1.93;;;9.70;99.90;;;;;;4864948;29;20438;-82
2022/02/22 14:09:04;;;;;;;2.87;1.70;;;9.60;99.90;;;;;;4867904;29;20467;-81
2022/02/22 14:11:49;;;;;;;7.33;2.47;;;9.50;99.90;;;;;;4875349;29;20441;-80
2022/02/22 14:14:34;;;;;;;2.53;1.70;;;9.60;99.90;;;;;;4865516;29;20479;-81
2022/02/22 14:17:19;;;;;;;5.63;1.83;;;9.50;99.90;;;;;;4866617;29;20497;-81
2022/02/22 14:20:06;;;;;;;7.00;2.10;;;9.50;99.90;;;;;;4875632;29;20491;-80
2022/02/22 14:22:50;;;;;;;5.77;2.10;;;9.50;99.90;;;;;;4866029;29;20429;-80
2022/02/22 14:25:37;;;;;;;3.90;1.70;;;9.40;99.90;;;;;;4852531;29;20506;-81
2022/02/22 14:28:22;;;;;;;2.90;2.03;;;9.40;99.90;;;;;;4843305;29;20428;-81
2022/02/22 14:31:06;;;;;;;3.07;1.57;;;9.00;99.90;;;;;;4872914;29;20418;-81
2022/02/22 14:33:51;;;;;;;3.33;1.40;;;9.00;99.90;;;;;;4860018;29;20487;-79
2022/02/22 14:36:35;;;;;;;4.10;2.60;;;9.10;99.90;;;;;;4864201;29;20363;-80